Time;durP1;ratioP1;P1;durP2;ratioP2;P2;SDS_P1;SDS_P2;PMS_P1;PMS_P2;Temp;Humidity;BMP_temperature;BMP_pressure;BME280_temperature;BME280_humidity;BME280_pressure;Samples;Min_cycle;Max_cycle;Signal;HPM_P1;HPM_P2
2022/01/13 00:01:54;;;;;;;;;;;;;;;-145.82;100.00;61645.16;4966115;28;20043;-69
2022/01/13 00:04:19;;;;;;;398.33;19.55;;;;;;;-145.82;100.00;61645.16;4964322;28;20476;-70
2022/01/13 00:06:45;;;;;;;406.02;18.33;;;;;;;-145.82;100.00;61645.16;4962260;28;20030;-70
2022/01/13 00:09:11;;;;;;;380.13;19.23;;;;;;;-145.82;100.00;61645.16;4966699;28;20050;-69
2022/01/13 00:11:37;;;;;;;571.13;22.50;;;;;;;-145.82;100.00;61645.16;4963538;28;20654;-71
2022/01/13 00:16:44;;;;;;;468.75;23.98;;;;;;;-145.82;100.00;61645.16;4962981;28;20039;-69
2022/01/13 00:21:51;;;;;;;460.02;18.17;;;;;;;-145.82;100.00;61645.16;4962375;28;20130;-69
2022/01/13 00:24:17;;;;;;;447.60;20.25;;;;;;;-145.82;100.00;61645.16;4963424;28;20030;-69
2022/01/13 00:26:43;;;;;;;405.08;18.85;;;;;;;-145.82;100.00;61645.16;4963958;28;20750;-69
2022/01/13 00:29:09;;;;;;;332.58;17.80;;;;;;;-145.82;100.00;61645.16;4963354;28;20058;-69
2022/01/13 00:31:39;;;;;;;582.88;25.80;;;;;;;-145.82;100.00;61645.16;4963061;28;20086;-70
2022/01/13 00:34:06;;;;;;;463.95;20.88;;;;;;;-145.82;100.00;61645.16;4962750;28;20550;-70
2022/01/13 00:36:39;;;;;;;639.75;26.35;;;;;;;-145.82;100.00;61645.16;4964190;28;20042;-69
2022/01/13 00:39:06;;;;;;;572.88;20.90;;;;;;;-145.82;100.00;61645.16;4964490;28;20061;-71
2022/01/13 00:41:31;;;;;;;477.58;22.45;;;;;;;-145.82;100.00;61645.16;4963588;28;20031;-70
2022/01/13 00:43:59;;;;;;;593.38;23.20;;;;;;;-145.82;100.00;61645.16;4964584;28;20484;-70
2022/01/13 00:46:28;;;;;;;846.10;32.80;;;;;;;-145.82;100.00;61645.16;4963649;28;20043;-69
2022/01/13 00:48:55;;;;;;;811.78;33.03;;;;;;;-145.82;100.00;61645.16;4962614;28;20043;-71
2022/01/13 00:51:24;;;;;;;489.17;21.35;;;;;;;-145.82;100.00;61645.16;4977477;28;20034;-70
2022/01/13 00:53:51;;;;;;;652.20;25.25;;;;;;;-145.82;100.00;61645.16;4963897;28;20035;-68
2022/01/13 00:56:17;;;;;;;521.33;24.30;;;;;;;-145.82;100.00;61645.16;4963693;28;20042;-69
2022/01/13 00:58:43;;;;;;;466.00;21.88;;;;;;;-145.82;100.00;61645.16;4976643;28;20031;-69
2022/01/13 01:01:09;;;;;;;811.03;38.13;;;;;;;-145.82;100.00;61645.16;4961963;28;20047;-70
2022/01/13 01:03:35;;;;;;;394.02;17.88;;;;;;;-145.82;100.00;61645.16;4963063;28;20038;-71
2022/01/13 01:06:03;;;;;;;396.67;19.88;;;;;;;-145.82;100.00;61645.16;4961879;28;20062;-69
2022/01/13 01:08:30;;;;;;;516.15;19.33;;;;;;;-145.82;100.00;61645.16;4961120;28;20051;-69
2022/01/13 01:10:57;;;;;;;660.28;24.77;;;;;;;-145.82;100.00;61645.16;4962896;28;20113;-70
2022/01/13 01:13:27;;;;;;;542.08;28.42;;;;;;;-145.82;100.00;61645.16;4962618;28;20043;-70
2022/01/13 01:15:56;;;;;;;420.08;19.15;;;;;;;-145.82;100.00;61645.16;4962250;28;20118;-70
2022/01/13 01:18:47;;;;;;;360.90;17.15;;;;;;;-145.82;100.00;61645.16;4962556;28;20098;-69
2022/01/13 01:21:33;;;;;;;559.50;24.52;;;;;;;-145.82;100.00;61645.16;4961617;28;20046;-70
2022/01/13 01:31:38;;;;;;;739.85;28.20;;;;;;;-145.82;100.00;61645.16;4962377;28;20047;-69
2022/01/13 01:36:33;;;;;;;632.70;29.67;;;;;;;-145.82;100.00;61645.16;4963792;28;20471;-69
2022/01/13 01:38:59;;;;;;;547.20;21.80;;;;;;;-145.82;100.00;61645.16;4961520;28;20373;-69
2022/01/13 01:41:26;;;;;;;811.70;34.45;;;;;;;-145.82;100.00;61645.16;4964538;28;20058;-71
2022/01/13 01:43:55;;;;;;;703.08;26.60;;;;;;;-145.82;100.00;61645.16;4964780;28;20039;-69
2022/01/13 01:46:21;;;;;;;683.80;35.08;;;;;;;-145.82;100.00;61645.16;4967074;28;20027;-72
2022/01/13 01:48:46;;;;;;;723.30;31.90;;;;;;;-145.82;100.00;61645.16;4964725;28;20093;-69
2022/01/13 01:51:12;;;;;;;938.42;46.28;;;;;;;-145.82;100.00;61645.16;4965804;28;20046;-70
2022/01/13 01:53:37;;;;;;;539.35;22.63;;;;;;;-145.82;100.00;61645.16;4967035;28;20042;-69
2022/01/13 01:56:03;;;;;;;440.00;21.35;;;;;;;-145.82;100.00;61645.16;4966107;28;20410;-69
2022/01/13 01:58:29;;;;;;;447.63;19.08;;;;;;;-145.82;100.00;61645.16;4965871;28;20113;-69
2022/01/13 02:00:55;;;;;;;437.67;18.58;;;;;;;-145.82;100.00;61645.16;4965706;28;20049;-71
2022/01/13 02:03:25;;;;;;;343.40;16.55;;;;;;;-145.82;100.00;61645.16;4966853;28;20034;-69
2022/01/13 02:05:50;;;;;;;686.47;26.20;;;;;;;-145.82;100.00;61645.16;4967530;28;20073;-68
2022/01/13 02:08:15;;;;;;;401.45;20.23;;;;;;;-145.82;100.00;61645.16;4963878;28;20113;-69
2022/01/13 02:10:44;;;;;;;595.17;26.40;;;;;;;-145.82;100.00;61645.16;4967311;28;20454;-69
2022/01/13 02:13:12;;;;;;;522.15;18.10;;;;;;;-145.82;100.00;61645.16;4979991;28;20043;-70
2022/01/13 02:16:35;;;;;;;554.00;22.92;;;;;;;-145.82;100.00;61645.16;4966071;28;20035;-70
2022/01/13 02:18:30;;;;;;;;;;;;;;;-145.82;100.00;61645.16;4964448;28;20055;-69
2022/01/13 02:20:56;;;;;;;432.10;20.65;;;;;;;-145.82;100.00;61645.16;4964775;28;19945;-68
2022/01/13 02:23:36;;;;;;;549.38;20.08;;;;;;;-145.82;100.00;61645.16;4966619;28;20054;-70
2022/01/13 02:26:04;;;;;;;348.88;15.10;;;;;;;-145.82;100.00;61645.16;4966198;28;20035;-70
2022/01/13 02:28:29;;;;;;;498.90;21.00;;;;;;;-145.82;100.00;61645.16;4964188;28;20370;-69
2022/01/13 02:30:56;;;;;;;475.52;19.73;;;;;;;-145.82;100.00;61645.16;4965112;28;20038;-69
2022/01/13 02:33:21;;;;;;;542.60;26.50;;;;;;;-145.82;100.00;61645.16;4965704;28;20037;-69
2022/01/13 02:35:47;;;;;;;407.02;20.42;;;;;;;-145.82;100.00;61645.16;4967177;28;20038;-68
2022/01/13 02:38:12;;;;;;;253.43;15.48;;;;;;;-145.82;100.00;61645.16;4963894;28;20466;-70
2022/01/13 02:40:38;;;;;;;375.15;21.60;;;;;;;-145.82;100.00;61645.16;4966275;28;20142;-69
2022/01/13 02:43:05;;;;;;;488.05;20.88;;;;;;;-145.82;100.00;61645.16;4965455;28;20053;-69
2022/01/13 02:45:35;;;;;;;353.80;15.88;;;;;;;-145.82;100.00;61645.16;4966461;28;20034;-69
2022/01/13 02:50:35;;;;;;;436.25;19.88;;;;;;;-145.82;100.00;61645.16;4965755;28;20443;-70
2022/01/13 02:53:03;;;;;;;462.38;20.30;;;;;;;-145.82;100.00;61645.16;4964018;28;20027;-70
2022/01/13 02:55:28;;;;;;;429.88;20.38;;;;;;;-145.82;100.00;61645.16;4965825;28;20066;-71
2022/01/13 02:57:54;;;;;;;427.05;16.83;;;;;;;-145.82;100.00;61645.16;4964371;28;20104;-69
2022/01/13 03:00:19;;;;;;;439.67;19.75;;;;;;;-145.82;100.00;61645.16;4965530;28;20033;-69
2022/01/13 03:02:47;;;;;;;324.98;15.75;;;;;;;-145.82;100.00;61645.16;4964070;28;20039;-69
2022/01/13 03:05:14;;;;;;;501.17;22.20;;;;;;;-145.82;100.00;61645.16;4964610;28;20133;-69
2022/01/13 03:07:40;;;;;;;496.20;19.80;;;;;;;-145.82;100.00;61645.16;4962815;28;20470;-69
2022/01/13 03:10:07;;;;;;;334.95;16.35;;;;;;;-145.82;100.00;61645.16;4965472;28;20034;-70
2022/01/13 03:12:36;;;;;;;452.30;18.23;;;;;;;-145.82;100.00;61645.16;4964622;28;20043;-71
2022/01/13 03:15:01;;;;;;;560.67;21.65;;;;;;;-145.82;100.00;61645.16;4964556;28;20513;-70
2022/01/13 03:17:27;;;;;;;431.50;21.88;;;;;;;-145.82;100.00;61645.16;4964303;28;20038;-69
2022/01/13 03:19:52;;;;;;;395.60;18.08;;;;;;;-145.82;100.00;61645.16;4965373;28;20035;-72
2022/01/13 03:22:18;;;;;;;513.45;22.83;;;;;;;-145.82;100.00;61645.16;4964276;28;20030;-69
2022/01/13 03:24:43;;;;;;;429.05;16.77;;;;;;;-145.82;100.00;61645.16;4964832;28;20489;-69
2022/01/13 03:27:17;;;;;;;481.40;21.10;;;;;;;-145.82;100.00;61645.16;4963550;28;20027;-71
2022/01/13 03:29:43;;;;;;;512.80;19.05;;;;;;;-145.82;100.00;61645.16;4964656;28;20162;-71
2022/01/13 03:32:08;;;;;;;417.02;18.48;;;;;;;-145.82;100.00;61645.16;4963149;28;20549;-69
2022/01/13 03:34:34;;;;;;;344.30;15.10;;;;;;;-145.82;100.00;61645.16;4964785;28;20512;-70
2022/01/13 03:36:59;;;;;;;431.33;17.42;;;;;;;-145.82;100.00;61645.16;4964057;28;20035;-70
2022/01/13 03:39:25;;;;;;;432.52;18.90;;;;;;;-145.82;100.00;61645.16;4964074;28;20046;-68
2022/01/13 03:41:50;;;;;;;599.33;33.13;;;;;;;-145.82;100.00;61645.16;4963418;28;20026;-69
2022/01/13 03:44:27;;;;;;;448.88;18.88;;;;;;;-145.82;100.00;61645.16;4964828;28;20049;-71
2022/01/13 03:46:52;;;;;;;490.95;19.17;;;;;;;-145.82;100.00;61645.16;4961910;28;20405;-71
2022/01/13 03:49:18;;;;;;;359.67;14.80;;;;;;;-145.82;100.00;61645.16;4965193;28;20031;-69
2022/01/13 03:51:55;;;;;;;814.42;26.92;;;;;;;-145.82;100.00;61645.16;4964673;28;20047;-69
2022/01/13 03:54:32;;;;;;;342.08;13.57;;;;;;;-145.82;100.00;61645.16;4962031;28;20481;-71
2022/01/13 03:57:50;;;;;;;254.48;12.52;;;;;;;-145.82;100.00;61645.16;4976092;28;20045;-69
2022/01/13 04:00:56;;;;;;;268.85;12.27;;;;;;;-145.82;100.00;61645.16;4963596;28;20094;-70
2022/01/13 04:03:21;;;;;;;312.17;18.27;;;;;;;-145.82;100.00;61645.16;4963620;28;20035;-71
2022/01/13 04:06:12;;;;;;;474.90;18.15;;;;;;;-145.82;100.00;61645.16;4963203;28;20047;-68
2022/01/13 04:08:39;;;;;;;620.88;32.90;;;;;;;-145.82;100.00;61645.16;4961709;28;20401;-69
2022/01/13 04:11:04;;;;;;;762.83;26.92;;;;;;;-145.82;100.00;61645.16;4963742;28;20144;-70
2022/01/13 04:13:46;;;;;;;260.58;13.55;;;;;;;-145.82;100.00;61645.16;4963456;28;20668;-70
2022/01/13 04:16:13;;;;;;;439.35;17.85;;;;;;;-145.82;100.00;61645.16;4963790;28;20062;-70
2022/01/13 04:18:38;;;;;;;514.55;24.50;;;;;;;-145.82;100.00;61645.16;4963815;28;20624;-70
2022/01/13 04:21:04;;;;;;;252.40;14.95;;;;;;;-145.82;100.00;61645.16;4962927;28;20133;-71
2022/01/13 04:23:32;;;;;;;352.55;14.85;;;;;;;-145.82;100.00;61645.16;4965383;28;20114;-69
2022/01/13 04:25:57;;;;;;;410.50;19.33;;;;;;;-145.82;100.00;61645.16;4963615;28;20041;-71
2022/01/13 04:28:27;;;;;;;387.67;16.75;;;;;;;-145.82;100.00;61645.16;4963280;28;20393;-70
2022/01/13 04:31:00;;;;;;;406.95;16.63;;;;;;;-145.82;100.00;61645.16;4962742;28;20458;-71
2022/01/13 04:33:30;;;;;;;406.83;19.25;;;;;;;-145.82;100.00;61645.16;4964431;28;20571;-69
2022/01/13 04:35:57;;;;;;;350.15;15.68;;;;;;;-145.82;100.00;61645.16;4964071;28;20470;-69
2022/01/13 04:38:23;;;;;;;425.13;19.42;;;;;;;-145.82;100.00;61645.16;4963311;28;20039;-69
2022/01/13 04:40:55;;;;;;;255.35;12.77;;;;;;;-145.82;100.00;61645.16;4963443;28;20027;-68
2022/01/13 04:43:22;;;;;;;340.58;15.68;;;;;;;-145.82;100.00;61645.16;4964359;28;20053;-70
2022/01/13 04:45:50;;;;;;;262.77;16.00;;;;;;;-145.82;100.00;61645.16;4963864;28;20039;-69
2022/01/13 04:48:16;;;;;;;320.23;17.13;;;;;;;-145.82;100.00;61645.16;4961611;28;20030;-69
2022/01/13 04:50:43;;;;;;;271.65;14.90;;;;;;;-145.82;100.00;61645.16;4963396;28;20101;-69
2022/01/13 04:53:09;;;;;;;440.50;18.02;;;;;;;-145.82;100.00;61645.16;4962429;28;20049;-68
2022/01/13 04:55:37;;;;;;;609.97;22.48;;;;;;;-145.82;100.00;61645.16;4963133;28;20625;-69
2022/01/13 04:58:04;;;;;;;410.45;17.95;;;;;;;-145.82;100.00;61645.16;4976826;28;20378;-69
2022/01/13 05:00:31;;;;;;;472.35;18.80;;;;;;;-145.82;100.00;61645.16;4963326;28;20046;-69
2022/01/13 05:02:57;;;;;;;354.58;16.38;;;;;;;-145.82;100.00;61645.16;4961853;28;20043;-70
2022/01/13 05:05:23;;;;;;;667.42;26.10;;;;;;;-145.82;100.00;61645.16;4963363;28;20037;-69
2022/01/13 05:07:49;;;;;;;483.85;18.40;;;;;;;-145.82;100.00;61645.16;4961824;28;20390;-71
2022/01/13 05:10:16;;;;;;;403.33;18.85;;;;;;;-145.82;100.00;61645.16;4962501;28;20414;-69
2022/01/13 05:12:44;;;;;;;536.88;26.50;;;;;;;-145.82;100.00;61645.16;4962925;28;20117;-69
2022/01/13 05:15:15;;;;;;;386.90;20.20;;;;;;;-145.82;100.00;61645.16;4962985;28;20034;-69
2022/01/13 05:20:15;;;;;;;493.65;30.95;;;;;;;-145.82;100.00;61645.16;4961646;28;20050;-70
2022/01/13 05:22:41;;;;;;;455.67;28.48;;;;;;;-145.82;100.00;61645.16;4962464;28;20038;-68
2022/01/13 05:25:07;;;;;;;804.80;36.03;;;;;;;-145.82;100.00;61645.16;4960820;28;20072;-70
2022/01/13 05:27:32;;;;;;;356.23;35.38;;;;;;;-145.82;100.00;61645.16;4962238;28;20074;-69
2022/01/13 05:30:01;;;;;;;395.13;23.95;;;;;;;-145.82;100.00;61645.16;4962145;28;20093;-69
2022/01/13 05:32:26;;;;;;;415.63;19.38;;;;;;;-145.82;100.00;61645.16;4962388;28;20054;-69
2022/01/13 05:34:52;;;;;;;481.73;23.85;;;;;;;-145.82;100.00;61645.16;4976407;28;20118;-69
2022/01/13 05:37:17;;;;;;;301.35;19.85;;;;;;;-145.82;100.00;61645.16;4960645;28;20046;-69
2022/01/13 05:39:43;;;;;;;337.75;17.60;;;;;;;-145.82;100.00;61645.16;4962862;28;20030;-69
2022/01/13 05:42:08;;;;;;;356.75;20.85;;;;;;;-145.82;100.00;61645.16;4961929;28;20342;-69
2022/01/13 05:44:38;;;;;;;431.48;31.58;;;;;;;-145.82;100.00;61645.16;4963084;28;20038;-70
2022/01/13 05:47:05;;;;;;;609.40;24.88;;;;;;;-145.82;100.00;61645.16;4960499;28;20494;-69
2022/01/13 05:49:30;;;;;;;330.70;15.40;;;;;;;-145.82;100.00;61645.16;4962557;28;20035;-68
2022/01/13 05:51:56;;;;;;;309.25;16.42;;;;;;;-145.82;100.00;61645.16;4962292;28;20105;-69
2022/01/13 05:54:21;;;;;;;287.95;13.30;;;;;;;-145.82;100.00;61645.16;4962425;28;20115;-70
2022/01/13 05:56:47;;;;;;;318.23;16.02;;;;;;;-145.82;100.00;61645.16;4961440;28;20490;-69
2022/01/13 05:59:13;;;;;;;169.65;12.27;;;;;;;-145.82;100.00;61645.16;4963202;28;20130;-69
2022/01/13 06:01:38;;;;;;;131.43;11.95;;;;;;;-145.82;100.00;61645.16;4962748;28;20035;-69
2022/01/13 06:04:04;;;;;;;155.82;12.70;;;;;;;-145.82;100.00;61645.16;4961259;28;20062;-69
2022/01/13 06:06:31;;;;;;;120.75;10.77;;;;;;;-145.82;100.00;61645.16;4962308;28;20639;-70
2022/01/13 06:08:57;;;;;;;59.05;8.40;;;;;;;-145.82;100.00;61645.16;4961615;28;20046;-70
2022/01/13 06:11:23;;;;;;;91.15;9.98;;;;;;;-145.82;100.00;61645.16;4962611;28;20035;-70
2022/01/13 06:13:49;;;;;;;102.45;9.30;;;;;;;-145.82;100.00;61645.16;4960571;28;20517;-71
2022/01/13 06:16:16;;;;;;;83.57;11.77;;;;;;;-145.82;100.00;61645.16;4965181;28;20098;-69
2022/01/13 06:18:41;;;;;;;77.97;10.15;;;;;;;-145.82;100.00;61645.16;4961617;28;20042;-69
2022/01/13 06:21:07;;;;;;;132.63;10.32;;;;;;;-145.82;100.00;61645.16;4962601;28;20035;-69
2022/01/13 06:23:32;;;;;;;74.25;9.23;;;;;;;-145.82;100.00;61645.16;4962263;28;20070;-69
2022/01/13 06:25:58;;;;;;;81.07;9.50;;;;;;;-145.82;100.00;61645.16;4960922;28;20401;-69
2022/01/13 06:28:24;;;;;;;105.15;11.13;;;;;;;-145.82;100.00;61645.16;4961245;28;20090;-70
2022/01/13 06:30:50;;;;;;;181.18;14.15;;;;;;;-145.82;100.00;61645.16;4963421;28;20043;-69
2022/01/13 06:33:15;;;;;;;145.68;14.50;;;;;;;-145.82;100.00;61645.16;4965362;28;20038;-70
2022/01/13 06:35:41;;;;;;;170.30;13.23;;;;;;;-145.82;100.00;61645.16;4967911;28;20045;-69
2022/01/13 06:38:07;;;;;;;145.65;13.35;;;;;;;-145.82;100.00;61645.16;4963649;28;20042;-69
2022/01/13 06:40:33;;;;;;;164.40;15.95;;;;;;;-145.82;100.00;61645.16;4966705;28;20113;-71
2022/01/13 06:42:59;;;;;;;109.45;11.43;;;;;;;-145.82;100.00;61645.16;4963571;28;20093;-69
2022/01/13 06:45:24;;;;;;;89.45;11.10;;;;;;;-145.82;100.00;61645.16;4966743;28;20046;-70
2022/01/13 06:47:50;;;;;;;149.23;11.10;;;;;;;-145.82;100.00;61645.16;4963504;28;20093;-70
2022/01/13 06:50:17;;;;;;;69.18;8.88;;;;;;;-145.82;100.00;61645.16;4964542;28;20043;-70
2022/01/13 06:52:44;;;;;;;98.32;8.95;;;;;;;-145.82;100.00;61645.16;4963183;28;20336;-70
2022/01/13 06:55:10;;;;;;;53.83;9.00;;;;;;;-145.82;100.00;61645.16;4967651;28;20462;-69
2022/01/13 06:57:37;;;;;;;63.03;9.82;;;;;;;-145.82;100.00;61645.16;4963089;28;20331;-70
2022/01/13 07:00:03;;;;;;;165.88;13.68;;;;;;;-145.82;100.00;61645.16;4963963;28;20106;-71
2022/01/13 07:02:30;;;;;;;85.07;11.15;;;;;;;-145.82;100.00;61645.16;4963204;28;20150;-69
2022/01/13 07:04:56;;;;;;;138.65;17.33;;;;;;;-145.82;100.00;61645.16;4964569;28;20453;-69
2022/01/13 07:07:21;;;;;;;45.10;10.45;;;;;;;-145.82;100.00;61645.16;4965234;28;20041;-69
2022/01/13 07:09:47;;;;;;;58.92;9.90;;;;;;;-145.82;100.00;61645.16;4965003;28;20034;-71
2022/01/13 07:12:12;;;;;;;40.95;10.63;;;;;;;-145.82;100.00;61645.16;4964470;28;20353;-69
2022/01/13 07:14:38;;;;;;;20.05;7.43;;;;;;;-145.82;100.00;61645.16;4964673;28;20414;-69
2022/01/13 07:17:04;;;;;;;48.85;11.88;;;;;;;-145.82;100.00;61645.16;4965954;28;20039;-70
2022/01/13 07:19:30;;;;;;;49.58;9.32;;;;;;;-145.82;100.00;61645.16;4965280;28;20031;-70
2022/01/13 07:21:56;;;;;;;35.30;8.57;;;;;;;-145.82;100.00;61645.16;4964888;28;20097;-70
2022/01/13 07:24:21;;;;;;;24.50;7.50;;;;;;;-145.82;100.00;61645.16;4962661;28;20043;-71
2022/01/13 07:26:47;;;;;;;25.00;7.57;;;;;;;-145.82;100.00;61645.16;4964356;28;20363;-69
2022/01/13 07:29:13;;;;;;;21.67;8.45;;;;;;;-145.82;100.00;61645.16;4964496;28;20366;-69
2022/01/13 07:31:38;;;;;;;46.40;11.43;;;;;;;-145.82;100.00;61645.16;4965840;28;20386;-70
2022/01/13 07:34:05;;;;;;;38.28;11.43;;;;;;;-145.82;100.00;61645.16;4965418;28;20034;-69
2022/01/13 07:36:31;;;;;;;38.25;10.82;;;;;;;-145.82;100.00;61645.16;4981128;28;20492;-71
2022/01/13 07:38:57;;;;;;;52.88;10.15;;;;;;;-145.82;100.00;61645.16;4963890;28;20031;-70
2022/01/13 07:41:22;;;;;;;22.58;8.85;;;;;;;-145.82;100.00;61645.16;4966346;28;20030;-71
2022/01/13 07:43:53;;;;;;;27.75;10.30;;;;;;;-145.82;100.00;61645.16;4964243;28;20039;-70
2022/01/13 07:46:20;;;;;;;37.10;11.38;;;;;;;-145.82;100.00;61645.16;4963180;28;20076;-69
2022/01/13 07:48:48;;;;;;;39.15;9.80;;;;;;;-145.82;100.00;61645.16;4963864;28;20038;-69
2022/01/13 07:51:13;;;;;;;40.38;10.77;;;;;;;-145.82;100.00;61645.16;4964476;28;20039;-70
2022/01/13 07:53:39;;;;;;;30.42;11.20;;;;;;;-145.82;100.00;61645.16;4965572;28;20576;-69
2022/01/13 07:56:05;;;;;;;32.03;10.77;;;;;;;-145.82;100.00;61645.16;4964770;28;20121;-69
2022/01/13 07:58:30;;;;;;;37.63;12.07;;;;;;;-145.82;100.00;61645.16;4963406;28;20030;-69
2022/01/13 08:00:55;;;;;;;147.10;14.27;;;;;;;-145.82;100.00;61645.16;4962160;28;20489;-70
2022/01/13 08:03:21;;;;;;;106.32;14.68;;;;;;;-145.82;100.00;61645.16;4965274;28;20037;-69
2022/01/13 08:05:46;;;;;;;83.90;12.23;;;;;;;-145.82;100.00;61645.16;4963827;28;20043;-69
2022/01/13 08:08:12;;;;;;;40.35;11.27;;;;;;;-145.82;100.00;61645.16;4964046;28;21877;-70
2022/01/13 08:10:37;;;;;;;59.38;11.25;;;;;;;-145.82;100.00;61645.16;4967088;28;20492;-69
2022/01/13 08:13:03;;;;;;;131.07;14.70;;;;;;;-145.82;100.00;61645.16;4960269;28;20472;-70
2022/01/13 08:15:29;;;;;;;119.53;13.70;;;;;;;-145.82;100.00;61645.16;4967942;28;20191;-69
2022/01/13 08:20:38;;;;;;;259.50;14.57;;;;;;;-145.82;100.00;61645.16;4966337;28;20084;-70
2022/01/13 08:23:04;;;;;;;386.48;16.80;;;;;;;-145.82;100.00;61645.16;4962590;28;20042;-71
2022/01/13 08:25:30;;;;;;;294.05;16.27;;;;;;;-145.82;100.00;61645.16;4965949;28;20465;-69
2022/01/13 08:27:56;;;;;;;182.52;12.32;;;;;;;-145.82;100.00;61645.16;4962150;28;20030;-70
2022/01/13 08:30:22;;;;;;;118.97;10.60;;;;;;;-145.82;100.00;61645.16;4962685;28;20245;-71
2022/01/13 08:32:48;;;;;;;255.38;15.45;;;;;;;-145.82;100.00;61645.16;4963710;28;20054;-68
2022/01/13 08:35:14;;;;;;;154.18;16.33;;;;;;;-145.82;100.00;61645.16;4963837;28;20039;-70
2022/01/13 08:37:39;;;;;;;177.27;15.38;;;;;;;-145.82;100.00;61645.16;4965874;28;20035;-68
2022/01/13 08:40:08;;;;;;;95.05;14.85;;;;;;;-145.82;100.00;61645.16;4963847;28;20079;-69
2022/01/13 08:42:35;;;;;;;178.25;16.77;;;;;;;-145.82;100.00;61645.16;4977262;28;20045;-70
2022/01/13 08:45:02;;;;;;;131.80;15.27;;;;;;;-145.82;100.00;61645.16;4962689;28;20067;-69
2022/01/13 08:47:28;;;;;;;66.68;13.75;;;;;;;-145.82;100.00;61645.16;4963388;28;20035;-70
2022/01/13 08:49:53;;;;;;;37.83;13.10;;;;;;;-145.82;100.00;61645.16;4964043;28;20426;-70
2022/01/13 08:52:19;;;;;;;33.63;12.95;;;;;;;-145.82;100.00;61645.16;4963484;28;20604;-69
2022/01/13 08:54:45;;;;;;;31.85;12.98;;;;;;;-145.82;100.00;61645.16;4963381;28;20039;-69
2022/01/13 08:57:11;;;;;;;31.05;12.98;;;;;;;-145.82;100.00;61645.16;4976732;28;20509;-69
2022/01/13 08:59:37;;;;;;;27.10;10.32;;;;;;;-145.82;100.00;61645.16;4964644;28;20041;-70
2022/01/13 09:02:03;;;;;;;31.27;13.25;;;;;;;-145.82;100.00;61645.16;4963547;28;20516;-69
2022/01/13 09:04:28;;;;;;;29.42;12.38;;;;;;;-145.82;100.00;61645.16;4964062;28;20043;-70
2022/01/13 09:06:55;;;;;;;30.35;12.25;;;;;;;-145.82;100.00;61645.16;4977850;28;20141;-69
2022/01/13 09:09:20;;;;;;;28.25;11.15;;;;;;;-145.82;100.00;61645.16;4963701;28;20047;-70
2022/01/13 09:11:46;;;;;;;27.50;11.48;;;;;;;-145.82;100.00;61645.16;4962217;28;20053;-71
2022/01/13 09:14:13;;;;;;;25.85;11.13;;;;;;;-145.82;100.00;61645.16;4961981;28;20047;-71
2022/01/13 09:16:43;;;;;;;23.15;8.25;;;;;;;-145.82;100.00;61645.16;4960275;28;20027;-69
2022/01/13 09:19:11;;;;;;;23.58;9.73;;;;;;;-145.82;100.00;61645.16;4963221;28;20045;-68
2022/01/13 09:21:39;;;;;;;15.98;6.80;;;;;;;-145.82;100.00;61645.16;4959427;28;20034;-69
2022/01/13 09:24:08;;;;;;;20.23;7.90;;;;;;;-145.82;100.00;61645.16;4962427;28;20696;-69
2022/01/13 09:26:34;;;;;;;18.02;6.47;;;;;;;-145.82;100.00;61645.16;4960664;28;20066;-69
2022/01/13 09:28:59;;;;;;;19.50;7.75;;;;;;;-145.82;100.00;61645.16;4959477;28;20517;-69
2022/01/13 09:31:26;;;;;;;16.10;7.38;;;;;;;-145.82;100.00;61645.16;4961401;28;20421;-69
2022/01/13 09:33:53;;;;;;;19.52;8.80;;;;;;;-145.82;100.00;61645.16;4959628;28;20041;-69
2022/01/13 09:36:19;;;;;;;20.33;8.43;;;;;;;-145.82;100.00;61645.16;4959151;28;20062;-71
2022/01/13 09:38:45;;;;;;;18.30;8.15;;;;;;;-145.82;100.00;61645.16;4959102;28;20734;-69
2022/01/13 09:41:12;;;;;;;20.60;8.25;;;;;;;-145.82;100.00;61645.16;4959277;28;20042;-71
2022/01/13 09:43:42;;;;;;;24.95;10.90;;;;;;;-145.82;100.00;61645.16;4961875;28;20039;-69
2022/01/13 09:46:10;;;;;;;28.92;11.18;;;;;;;-145.82;100.00;61645.16;4960338;28;20117;-70
2022/01/13 09:48:39;;;;;;;31.70;13.65;;;;;;;-145.82;100.00;61645.16;4960515;28;20064;-70
2022/01/13 09:51:05;;;;;;;34.53;14.98;;;;;;;-145.82;100.00;61645.16;4958934;28;20042;-71
2022/01/13 09:53:30;;;;;;;34.13;14.35;;;;;;;-145.82;100.00;61645.16;4960725;28;20038;-70
2022/01/13 09:55:56;;;;;;;30.48;13.65;;;;;;;-145.82;100.00;61645.16;4961625;28;20110;-69
2022/01/13 09:58:21;;;;;;;36.85;15.68;;;;;;;-145.82;100.00;61645.16;4960329;28;20377;-70
2022/01/13 10:00:47;;;;;;;31.45;13.95;;;;;;;-145.82;100.00;61645.16;4960841;28;20038;-70
2022/01/13 10:03:19;;;;;;;33.35;12.57;;;;;;;-145.82;100.00;61645.16;4959646;28;20035;-70
2022/01/13 10:05:52;;;;;;;31.67;12.63;;;;;;;-145.82;100.00;61645.16;4962285;28;20035;-72
2022/01/13 10:08:44;;;;;;;27.67;12.25;;;;;;;-145.82;100.00;61645.16;4964154;28;20035;-70
2022/01/13 10:11:23;;;;;;;27.25;12.02;;;;;;;-145.82;100.00;61645.16;4978292;28;20047;-70
2022/01/13 10:14:01;;;;;;;38.72;13.27;;;;;;;-145.82;100.00;61645.16;4960950;28;20134;-70
2022/01/13 10:16:28;;;;;;;55.85;26.13;;;;;;;-145.82;100.00;61645.16;4962530;28;20035;-71
2022/01/13 10:18:54;;;;;;;69.88;32.50;;;;;;;-145.82;100.00;61645.16;4961778;28;20354;-71
2022/01/13 10:21:21;;;;;;;47.15;18.23;;;;;;;-145.82;100.00;61645.16;4964010;28;20082;-72
2022/01/13 10:24:12;;;;;;;51.08;22.00;;;;;;;-145.82;100.00;61645.16;4963624;28;20049;-71
2022/01/13 10:26:57;;;;;;;33.65;15.30;;;;;;;-145.82;100.00;61645.16;4961603;28;20034;-70
2022/01/13 10:29:39;;;;;;;34.72;15.10;;;;;;;-145.82;100.00;61645.16;4963872;28;20262;-70
2022/01/13 10:32:05;;;;;;;38.97;16.65;;;;;;;-145.82;100.00;61645.16;4963709;28;20112;-71
2022/01/13 10:34:32;;;;;;;41.58;17.70;;;;;;;-145.82;100.00;61645.16;4963327;28;20403;-73
2022/01/13 10:37:27;;;;;;;45.50;19.17;;;;;;;-145.82;100.00;61645.16;4964781;28;20043;-70
2022/01/13 10:39:57;;;;;;;95.05;35.25;;;;;;;-145.82;100.00;61645.16;4962985;28;20043;-72
2022/01/13 10:45:30;;;;;;;53.38;20.58;;;;;;;-145.82;100.00;61645.16;4963106;28;20035;-71
2022/01/13 10:48:03;;;;;;;34.47;14.07;;;;;;;-145.82;100.00;61645.16;4963575;28;20042;-72
2022/01/13 10:50:44;;;;;;;31.73;13.98;;;;;;;-145.82;100.00;61645.16;4966939;28;20362;-73
2022/01/13 10:53:14;;;;;;;35.22;16.30;;;;;;;-145.82;100.00;61645.16;4967097;28;20066;-70
2022/01/13 10:55:46;;;;;;;35.08;17.42;;;;;;;-145.82;100.00;61645.16;4964716;28;20051;-70
2022/01/13 10:58:13;;;;;;;36.08;18.40;;;;;;;-145.82;100.00;61645.16;4964475;28;20057;-73
2022/01/13 11:00:40;;;;;;;29.83;15.20;;;;;;;-145.82;100.00;61645.16;4966193;28;20158;-71
2022/01/13 11:03:16;;;;;;;32.05;14.50;;;;;;;-145.82;100.00;61645.16;4966864;28;20432;-72
2022/01/13 11:05:46;;;;;;;49.70;21.25;;;;;;;-145.82;100.00;61645.16;4966444;28;20043;-73
2022/01/13 11:08:20;;;;;;;32.10;15.98;;;;;;;-145.82;100.00;61645.16;4963327;28;20038;-71
2022/01/13 11:10:51;;;;;;;33.00;14.57;;;;;;;-145.82;100.00;61645.16;4965694;28;20046;-70
2022/01/13 11:13:21;;;;;;;25.52;11.10;;;;;;;-145.82;100.00;61645.16;4964145;28;20038;-71
2022/01/13 11:15:51;;;;;;;;;;;;;;;-145.82;100.00;61645.16;4964634;28;20637;-72
2022/01/13 11:18:19;;;;;;;24.80;12.40;;;;;;;-145.82;100.00;61645.16;4963817;28;19945;-70
2022/01/13 11:20:47;;;;;;;24.48;11.23;;;;;;;-145.82;100.00;61645.16;4966503;28;20066;-71
2022/01/13 11:23:14;;;;;;;24.48;11.90;;;;;;;-145.82;100.00;61645.16;4964480;28;20493;-70